METAR Data
IDs: Format: Raw Decoded Include TAF

Data at: 1109 UTC 18 Jan 2022

KPSO 181055Z AUTO 00000KT 10SM CLR M09/M11 A3006 RMK AO2 T10941107
KPSO 181035Z AUTO 00000KT 10SM CLR M08/M11 A3007 RMK AO2 T10851106
KPSO 181015Z AUTO 00000KT 10SM CLR M08/M10 A3007 RMK AO2 T10821098
KPSO 180955Z AUTO 00000KT 10SM CLR M07/M09 A3005 RMK AO2 T10751092
KPSO 180935Z AUTO 00000KT 10SM CLR M09/M10 A3005 RMK AO2 T10931102
KPSO 180915Z AUTO 00000KT 10SM CLR M08/M09 A3005 RMK AO2 LTG DSNT S T10791091
KPSO 180855Z AUTO 00000KT 10SM CLR M08/M09 A3005 RMK AO2 T10851090
KPSO 180835Z AUTO 00000KT 10SM CLR M08/M11 A3005 RMK AO2 T10851114
KPSO 180815Z AUTO 00000KT 10SM CLR M10/M10 A3005 RMK AO2 T10971104
KPSO 180755Z AUTO 00000KT 10SM CLR M09/M10 A3005 RMK AO2 T10861103
KPSO 180735Z AUTO 00000KT 10SM CLR M07/M10 A3005 RMK AO2 T10711097
KPSO 180715Z AUTO 00000KT 10SM CLR M07/M09 A3007 RMK AO2 T10741094
KPSO 180655Z AUTO 00000KT 10SM CLR M07/M09 A3008 RMK AO2 T10711091
KPSO 180635Z AUTO 00000KT 10SM CLR M07/M09 A3009 RMK AO2 T10701093
KPSO 180615Z AUTO 00000KT 10SM CLR M06/M09 A3009 RMK AO2 T10561090
KPSO 180555Z AUTO 00000KT 10SM CLR M05/M09 A3009 RMK AO2 T10511088 10025 21062 400551129
KPSO 180535Z AUTO 00000KT 10SM CLR M06/M09 A3009 RMK AO2 T10601095
KPSO 180515Z AUTO 00000KT 10SM CLR M04/M10 A3010 RMK AO2 LTG DSNT S T10441096
KPSO 180455Z AUTO 00000KT 10SM CLR M05/M10 A3010 RMK AO2 LTG DSNT E T10551097
KPSO 180435Z AUTO 00000KT 10SM CLR M06/M09 A3010 RMK AO2 T10591092
KPSO 180415Z AUTO 00000KT 10SM CLR M05/M08 A3009 RMK AO2 T10481078
KPSO 180355Z AUTO 00000KT 10SM CLR M04/M07 A3009 RMK AO2 T10401069
KPSO 180335Z AUTO 00000KT 10SM CLR M03/M08 A3009 RMK AO2 T10321078
KPSO 180315Z AUTO 00000KT 10SM CLR M03/M08 A3009 RMK AO2 T10261078
KPSO 180255Z AUTO 00000KT 10SM CLR M03/M07 A3009 RMK AO2 T10301074
KPSO 180235Z AUTO 00000KT 10SM CLR M02/M08 A3010 RMK AO2 T10231077
KPSO 180215Z AUTO 00000KT 10SM VCTS CLR M02/M07 A3009 RMK AO2 T10221067
KPSO 180155Z AUTO 00000KT 10SM CLR M02/M06 A3009 RMK AO2 T10221056
KPSO 180135Z AUTO 00000KT 10SM CLR M01/M07 A3009 RMK AO2 T10061073
KPSO 180115Z AUTO 00000KT 10SM CLR M01/M08 A3009 RMK AO2 T10101077
KPSO 180055Z AUTO 00000KT 10SM CLR M01/M07 A3009 RMK AO2 T10151066
KPSO 180035Z AUTO 00000KT 10SM CLR 00/M05 A3009 RMK AO2 T00031053
KPSO 180015Z AUTO 00000KT 10SM CLR 02/M07 A3009 RMK AO2 T00171070
KPSO 172355Z AUTO 00000KT 10SM CLR 01/M07 A3009 RMK AO2 T00141072 10055 20004
KPSO 172335Z AUTO 00000KT 10SM CLR 03/M08 A3009 RMK AO2 T00271081
KPSO 172315Z AUTO 00000KT 10SM CLR 04/M08 A3009 RMK AO2 T00441082
KPSO 172255Z AUTO 00000KT 10SM CLR 05/M09 A3009 RMK AO2 T00521090
KPSO 172235Z AUTO 00000KT 10SM CLR 05/M09 A3010 RMK AO2 T00511094
KPSO 172215Z AUTO 00000KT 10SM CLR 05/M09 A3009 RMK AO2 T00531093
KPSO 172155Z AUTO 00000KT 10SM CLR 05/M10 A3009 RMK AO2 T00521097
KPSO 172135Z AUTO 00000KT 10SM CLR 06/M09 A3009 RMK AO2 T00551092
KPSO 172115Z AUTO 00000KT 10SM CLR 06/M09 A3009 RMK AO2 T00551095
KPSO 172055Z AUTO 00000KT 10SM CLR 06/M11 A3009 RMK AO2 T00551106
KPSO 172035Z AUTO 00000KT 10SM CLR 05/M10 A3009 RMK AO2 T00501103
KPSO 172015Z AUTO 19004KT 10SM CLR 05/M09 A3009 RMK AO2 T00481092
KPSO 171955Z AUTO 20003KT 10SM CLR 05/M10 A3012 RMK AO2 T00451096
KPSO 171935Z AUTO 00000KT 10SM CLR 04/M10 A3011 RMK AO2 T00411101
KPSO 171915Z AUTO 00000KT 10SM CLR 04/M11 A3012 RMK AO2 T00361110
KPSO 171855Z AUTO 00000KT 10SM CLR 03/M11 A3015 RMK AO2 T00311115
KPSO 171835Z AUTO 18003KT 10SM CLR 02/M12 A3016 RMK AO2 T00241121
KPSO 171815Z AUTO 19003KT 10SM CLR 01/M11 A3017 RMK AO2 T00141110
KPSO 171755Z AUTO 20004KT 10SM CLR 00/M11 A3017 RMK AO2 T00021107 10005 21129
KPSO 171735Z AUTO 21005KT 10SM CLR 00/M12 A3018 RMK AO2 T00021116
KPSO 171715Z AUTO 00000KT 10SM CLR M01/M12 A3018 RMK AO2 T10061122
KPSO 171655Z AUTO 00000KT 10SM CLR M03/M12 A3019 RMK AO2 LTG DSNT S T10341119
KPSO 171635Z AUTO 00000KT 10SM CLR M03/M12 A3019 RMK AO2 T10291121
KPSO 171615Z AUTO 05003KT 10SM CLR M04/M12 A3019 RMK AO2 T10361122
KPSO 171555Z AUTO 03004KT 10SM CLR M08/M13 A3020 RMK AO2 T10851135
KPSO 171535Z AUTO 00000KT 10SM CLR M09/M12 A3019 RMK AO2 T10901123
KPSO 171515Z AUTO 00000KT 10SM CLR M10/M13 A3020 RMK AO2 T11031129
KPSO 171455Z AUTO 00000KT 10SM CLR M11/M13 A3019 RMK AO2 T11091134
KPSO 171435Z AUTO 00000KT 10SM CLR M11/M13 A3019 RMK AO2 T11111131
KPSO 171415Z AUTO 00000KT 10SM CLR M12/M14 A3018 RMK AO2 T11221137
KPSO 171355Z AUTO 00000KT 10SM CLR M11/M14 A3017 RMK AO2 T11151136
KPSO 171335Z AUTO 00000KT 10SM CLR M10/M13 A3017 RMK AO2 T11041128
KPSO 171315Z AUTO 00000KT 10SM CLR M11/M12 A3017 RMK AO2 T11141124
KPSO 171255Z AUTO 00000KT 10SM CLR M11/M12 A3017 RMK AO2 T11061119
KPSO 171235Z AUTO 00000KT 10SM CLR M12/M15 A3017 RMK AO2 T11251150
KPSO 171215Z AUTO 00000KT 10SM CLR M10/M12 A3017 RMK AO2 T10991121
KPSO 171155Z AUTO 00000KT 10SM CLR M12/M14 A3017 RMK AO2 T11191137 11071 21123
KPSO 171135Z AUTO 00000KT 10SM CLR M10/M12 A3017 RMK AO2 T11051121
KPSO 171115Z AUTO 00000KT 10SM CLR M12/M14 A3017 RMK AO2 T11201140
KPSO 171055Z AUTO 00000KT 10SM CLR M09/M11 A3017 RMK AO2 T10941114
KPSO 171035Z AUTO 00000KT 10SM CLR M08/M11 A3019 RMK AO2 T10851110
KPSO 171015Z AUTO 00000KT 10SM CLR M10/M11 A3019 RMK AO2 T11011115
KPSO 170955Z AUTO 00000KT 10SM CLR M10/M12 A3020 RMK AO2 T11031123
KPSO 170935Z AUTO 00000KT 10SM CLR M11/M13 A3019 RMK AO2 T11071131
KPSO 170915Z AUTO 00000KT 10SM CLR M09/M11 A3020 RMK AO2 T10941107
KPSO 170855Z AUTO 00000KT 10SM CLR M09/M09 A3020 RMK AO2 T10901094
KPSO 170835Z AUTO 00000KT 10SM CLR M10/M12 A3020 RMK AO2 T11011123
KPSO 170815Z AUTO 18003KT 10SM CLR M09/M12 A3020 RMK AO2 T10931121
KPSO 170755Z AUTO 00000KT 10SM CLR M08/M11 A3020 RMK AO2 T10771108
KPSO 170735Z AUTO 00000KT 10SM CLR M09/M11 A3021 RMK AO2 T10871113
KPSO 170715Z AUTO 00000KT 10SM CLR M09/M12 A3021 RMK AO2 T10931118
KPSO 170655Z AUTO 00000KT 10SM CLR M08/M11 A3022 RMK AO2 T10831114
KPSO 170635Z AUTO 00000KT 10SM CLR M07/M10 A3022 RMK AO2 T10711103
KPSO 170615Z AUTO 00000KT 10SM CLR M08/M10 A3022 RMK AO2 T10791102
KPSO 170555Z AUTO 00000KT 10SM CLR M08/M11 A3023 RMK AO2 T10791108 10023 21085 400551141
KPSO 170535Z AUTO 00000KT 10SM CLR M07/M10 A3023 RMK AO2 T10721098
KPSO 170515Z AUTO 00000KT 10SM CLR M07/M09 A3023 RMK AO2 T10731093
KPSO 170455Z AUTO 00000KT 10SM CLR M08/M10 A3022 RMK AO2 T10821105
KPSO 170435Z AUTO 00000KT 10SM CLR M06/M09 A3023 RMK AO2 T10651091
KPSO 170415Z AUTO 00000KT 10SM CLR M06/M09 A3023 RMK AO2 T10581090
KPSO 170355Z AUTO 00000KT 10SM CLR M06/M09 A3023 RMK AO2 T10561088
KPSO 170335Z AUTO 00000KT 10SM CLR M05/M09 A3023 RMK AO2 T10501087
KPSO 170315Z AUTO 00000KT 10SM CLR M05/M09 A3022 RMK AO2 LTG DSNT S T10481092
KPSO 170255Z AUTO 00000KT 10SM CLR M06/M10 A3023 RMK AO2 T10591104
KPSO 170235Z AUTO 00000KT 10SM CLR M04/M09 A3022 RMK AO2 T10391086
KPSO 170215Z AUTO 00000KT 10SM CLR M05/M09 A3022 RMK AO2 T10461089
KPSO 170155Z AUTO 06003KT 10SM CLR M04/M09 A3023 RMK AO2 T10431087
KPSO 170135Z AUTO 00000KT 10SM CLR M03/M08 A3022 RMK AO2 T10281080
KPSO 170115Z AUTO 00000KT 10SM CLR M03/M08 A3022 RMK AO2 T10271076
KPSO 170055Z AUTO 00000KT 10SM CLR M02/M08 A3021 RMK AO2 T10181080
KPSO 170035Z AUTO 00000KT 10SM CLR M03/M09 A3019 RMK AO2 T10311092
KPSO 170015Z AUTO 00000KT 10SM CLR M01/M08 A3019 RMK AO2 T10151081
KPSO 162355Z AUTO 00000KT 10SM CLR 03/M09 A3019 RMK AO2 T00271091 10055 21005
KPSO 162335Z AUTO 00000KT 10SM CLR 04/M09 A3017 RMK AO2 T00441093
KPSO 162315Z AUTO 00000KT 10SM CLR 05/M09 A3019 RMK AO2 T00471095